sensor_id;sensor_type;location;lat;lon;timestamp;P1;durP1;ratioP1;P2;durP2;ratioP2
64633;SDS011;51043;52.406;9.690;2022-09-09T00:03:56;12.10;;;5.10;;
64633;SDS011;51043;52.406;9.690;2022-09-09T00:09:18;11.37;;;5.30;;
64633;SDS011;51043;52.406;9.690;2022-09-09T00:15:05;7.27;;;4.83;;
64633;SDS011;51043;52.406;9.690;2022-09-09T00:17:43;10.77;;;5.43;;
64633;SDS011;51043;52.406;9.690;2022-09-09T00:20:29;9.07;;;5.07;;
64633;SDS011;51043;52.406;9.690;2022-09-09T00:23:12;7.33;;;4.60;;
64633;SDS011;51043;52.406;9.690;2022-09-09T00:25:49;6.27;;;4.93;;
64633;SDS011;51043;52.406;9.690;2022-09-09T00:28:28;8.80;;;5.50;;
64633;SDS011;51043;52.406;9.690;2022-09-09T00:31:11;9.23;;;5.40;;
64633;SDS011;51043;52.406;9.690;2022-09-09T00:33:40;7.50;;;4.73;;
64633;SDS011;51043;52.406;9.690;2022-09-09T00:36:13;10.10;;;4.67;;
64633;SDS011;51043;52.406;9.690;2022-09-09T00:39:04;7.60;;;4.73;;
64633;SDS011;51043;52.406;9.690;2022-09-09T00:44:30;8.23;;;4.47;;
64633;SDS011;51043;52.406;9.690;2022-09-09T00:47:09;8.20;;;4.33;;
64633;SDS011;51043;52.406;9.690;2022-09-09T00:52:59;7.73;;;4.33;;
64633;SDS011;51043;52.406;9.690;2022-09-09T00:58:45;4.93;;;3.73;;
64633;SDS011;51043;52.406;9.690;2022-09-09T01:01:31;7.30;;;3.53;;
64633;SDS011;51043;52.406;9.690;2022-09-09T01:03:58;7.57;;;3.90;;
64633;SDS011;51043;52.406;9.690;2022-09-09T01:06:35;8.33;;;3.83;;
64633;SDS011;51043;52.406;9.690;2022-09-09T01:14:16;7.57;;;4.07;;
64633;SDS011;51043;52.406;9.690;2022-09-09T01:16:47;8.77;;;3.63;;
64633;SDS011;51043;52.406;9.690;2022-09-09T01:19:19;7.47;;;3.80;;
64633;SDS011;51043;52.406;9.690;2022-09-09T01:28:13;6.77;;;3.40;;
64633;SDS011;51043;52.406;9.690;2022-09-09T01:30:54;8.97;;;3.50;;
64633;SDS011;51043;52.406;9.690;2022-09-09T01:33:25;5.43;;;3.30;;
64633;SDS011;51043;52.406;9.690;2022-09-09T01:35:54;7.03;;;3.33;;
64633;SDS011;51043;52.406;9.690;2022-09-09T01:38:45;7.83;;;2.83;;
64633;SDS011;51043;52.406;9.690;2022-09-09T01:41:14;10.03;;;3.80;;
64633;SDS011;51043;52.406;9.690;2022-09-09T01:43:47;11.70;;;3.97;;
64633;SDS011;51043;52.406;9.690;2022-09-09T01:46:14;7.17;;;2.90;;
64633;SDS011;51043;52.406;9.690;2022-09-09T01:48:42;5.13;;;2.60;;
64633;SDS011;51043;52.406;9.690;2022-09-09T01:51:13;6.80;;;2.50;;
64633;SDS011;51043;52.406;9.690;2022-09-09T01:53:40;5.90;;;2.47;;
64633;SDS011;51043;52.406;9.690;2022-09-09T02:03:57;8.20;;;2.50;;
64633;SDS011;51043;52.406;9.690;2022-09-09T02:09:16;6.37;;;2.37;;
64633;SDS011;51043;52.406;9.690;2022-09-09T02:11:47;4.70;;;1.93;;
64633;SDS011;51043;52.406;9.690;2022-09-09T02:14:34;3.77;;;2.00;;
64633;SDS011;51043;52.406;9.690;2022-09-09T02:17:09;5.93;;;1.80;;
64633;SDS011;51043;52.406;9.690;2022-09-09T02:19:56;8.67;;;2.40;;
64633;SDS011;51043;52.406;9.690;2022-09-09T02:22:43;4.87;;;2.23;;
64633;SDS011;51043;52.406;9.690;2022-09-09T02:25:14;5.43;;;2.20;;
64633;SDS011;51043;52.406;9.690;2022-09-09T02:27:45;9.23;;;1.90;;
64633;SDS011;51043;52.406;9.690;2022-09-09T02:30:14;6.30;;;2.20;;
64633;SDS011;51043;52.406;9.690;2022-09-09T02:32:48;4.63;;;2.10;;
64633;SDS011;51043;52.406;9.690;2022-09-09T02:35:20;7.63;;;2.00;;
64633;SDS011;51043;52.406;9.690;2022-09-09T02:37:51;3.87;;;2.10;;
64633;SDS011;51043;52.406;9.690;2022-09-09T02:40:22;4.40;;;1.90;;
64633;SDS011;51043;52.406;9.690;2022-09-09T02:42:56;4.87;;;1.80;;
64633;SDS011;51043;52.406;9.690;2022-09-09T02:45:25;8.00;;;1.97;;
64633;SDS011;51043;52.406;9.690;2022-09-09T02:48:08;5.63;;;2.17;;
64633;SDS011;51043;52.406;9.690;2022-09-09T02:50:48;4.93;;;2.00;;
64633;SDS011;51043;52.406;9.690;2022-09-09T02:53:23;4.60;;;2.00;;
64633;SDS011;51043;52.406;9.690;2022-09-09T02:55:58;4.30;;;2.00;;
64633;SDS011;51043;52.406;9.690;2022-09-09T02:58:36;7.03;;;1.90;;
64633;SDS011;51043;52.406;9.690;2022-09-09T03:01:05;8.93;;;2.43;;
64633;SDS011;51043;52.406;9.690;2022-09-09T03:03:32;6.17;;;2.37;;
64633;SDS011;51043;52.406;9.690;2022-09-09T03:06:03;5.37;;;2.27;;
64633;SDS011;51043;52.406;9.690;2022-09-09T03:08:31;14.63;;;2.40;;
64633;SDS011;51043;52.406;9.690;2022-09-09T03:10:59;8.53;;;2.50;;
64633;SDS011;51043;52.406;9.690;2022-09-09T03:13:32;4.30;;;1.87;;
64633;SDS011;51043;52.406;9.690;2022-09-09T03:16:00;6.90;;;2.20;;
64633;SDS011;51043;52.406;9.690;2022-09-09T03:18:30;5.40;;;2.10;;
64633;SDS011;51043;52.406;9.690;2022-09-09T03:20:57;8.83;;;2.27;;
64633;SDS011;51043;52.406;9.690;2022-09-09T03:23:26;6.57;;;2.10;;
64633;SDS011;51043;52.406;9.690;2022-09-09T03:25:53;3.57;;;1.80;;
64633;SDS011;51043;52.406;9.690;2022-09-09T03:28:29;11.20;;;2.37;;
64633;SDS011;51043;52.406;9.690;2022-09-09T03:30:59;6.43;;;2.47;;
64633;SDS011;51043;52.406;9.690;2022-09-09T03:33:34;4.40;;;1.90;;
64633;SDS011;51043;52.406;9.690;2022-09-09T03:36:04;5.23;;;2.00;;
64633;SDS011;51043;52.406;9.690;2022-09-09T03:38:31;10.63;;;2.40;;
64633;SDS011;51043;52.406;9.690;2022-09-09T03:40:58;5.43;;;2.27;;
64633;SDS011;51043;52.406;9.690;2022-09-09T03:43:29;5.20;;;2.10;;
64633;SDS011;51043;52.406;9.690;2022-09-09T03:45:56;7.20;;;2.47;;
64633;SDS011;51043;52.406;9.690;2022-09-09T03:48:25;7.30;;;2.23;;
64633;SDS011;51043;52.406;9.690;2022-09-09T03:50:54;7.33;;;2.13;;
64633;SDS011;51043;52.406;9.690;2022-09-09T03:53:28;8.40;;;2.70;;
64633;SDS011;51043;52.406;9.690;2022-09-09T03:55:56;8.53;;;2.17;;
64633;SDS011;51043;52.406;9.690;2022-09-09T03:58:27;5.87;;;2.13;;
64633;SDS011;51043;52.406;9.690;2022-09-09T04:01:02;8.23;;;2.20;;
64633;SDS011;51043;52.406;9.690;2022-09-09T04:03:31;5.97;;;2.27;;
64633;SDS011;51043;52.406;9.690;2022-09-09T04:05:59;11.30;;;2.37;;
64633;SDS011;51043;52.406;9.690;2022-09-09T04:08:29;9.53;;;2.30;;
64633;SDS011;51043;52.406;9.690;2022-09-09T04:11:00;10.10;;;2.60;;
64633;SDS011;51043;52.406;9.690;2022-09-09T04:13:33;10.40;;;2.40;;
64633;SDS011;51043;52.406;9.690;2022-09-09T04:16:01;11.40;;;2.53;;
64633;SDS011;51043;52.406;9.690;2022-09-09T04:18:30;8.80;;;2.40;;
64633;SDS011;51043;52.406;9.690;2022-09-09T04:20:58;12.23;;;2.60;;
64633;SDS011;51043;52.406;9.690;2022-09-09T04:23:28;8.87;;;2.77;;
64633;SDS011;51043;52.406;9.690;2022-09-09T04:26:00;6.20;;;2.30;;
64633;SDS011;51043;52.406;9.690;2022-09-09T04:28:30;8.60;;;2.73;;
64633;SDS011;51043;52.406;9.690;2022-09-09T04:33:56;7.43;;;2.47;;
64633;SDS011;51043;52.406;9.690;2022-09-09T04:36:24;10.43;;;2.53;;
64633;SDS011;51043;52.406;9.690;2022-09-09T04:38:55;5.90;;;2.50;;
64633;SDS011;51043;52.406;9.690;2022-09-09T04:41:21;10.47;;;2.63;;
64633;SDS011;51043;52.406;9.690;2022-09-09T04:43:51;14.13;;;2.90;;
64633;SDS011;51043;52.406;9.690;2022-09-09T04:46:20;8.57;;;3.30;;
64633;SDS011;51043;52.406;9.690;2022-09-09T04:48:49;6.57;;;2.30;;
64633;SDS011;51043;52.406;9.690;2022-09-09T04:51:17;5.43;;;2.40;;
64633;SDS011;51043;52.406;9.690;2022-09-09T04:53:46;9.13;;;2.53;;
64633;SDS011;51043;52.406;9.690;2022-09-09T04:56:16;5.87;;;2.13;;
64633;SDS011;51043;52.406;9.690;2022-09-09T04:58:55;8.87;;;2.53;;
64633;SDS011;51043;52.406;9.690;2022-09-09T05:01:31;6.13;;;2.47;;
64633;SDS011;51043;52.406;9.690;2022-09-09T05:04:02;9.97;;;2.20;;
64633;SDS011;51043;52.406;9.690;2022-09-09T05:06:31;10.53;;;2.40;;
64633;SDS011;51043;52.406;9.690;2022-09-09T05:08:59;10.37;;;2.47;;
64633;SDS011;51043;52.406;9.690;2022-09-09T05:11:29;6.63;;;2.30;;
64633;SDS011;51043;52.406;9.690;2022-09-09T05:14:07;8.23;;;2.60;;
64633;SDS011;51043;52.406;9.690;2022-09-09T05:16:34;5.07;;;2.20;;
64633;SDS011;51043;52.406;9.690;2022-09-09T05:19:01;7.20;;;2.37;;
64633;SDS011;51043;52.406;9.690;2022-09-09T05:21:40;5.27;;;2.27;;
64633;SDS011;51043;52.406;9.690;2022-09-09T05:24:07;15.03;;;2.67;;
64633;SDS011;51043;52.406;9.690;2022-09-09T05:26:35;7.40;;;2.57;;
64633;SDS011;51043;52.406;9.690;2022-09-09T05:29:02;6.97;;;2.50;;
64633;SDS011;51043;52.406;9.690;2022-09-09T05:31:30;10.03;;;2.97;;
64633;SDS011;51043;52.406;9.690;2022-09-09T05:34:00;11.40;;;2.57;;
64633;SDS011;51043;52.406;9.690;2022-09-09T05:36:27;11.10;;;2.97;;
64633;SDS011;51043;52.406;9.690;2022-09-09T05:38:55;6.23;;;2.10;;
64633;SDS011;51043;52.406;9.690;2022-09-09T05:41:25;6.80;;;2.20;;
64633;SDS011;51043;52.406;9.690;2022-09-09T05:43:54;7.20;;;2.60;;
64633;SDS011;51043;52.406;9.690;2022-09-09T05:46:22;5.80;;;2.37;;
64633;SDS011;51043;52.406;9.690;2022-09-09T05:48:52;10.77;;;2.70;;
64633;SDS011;51043;52.406;9.690;2022-09-09T05:51:26;14.00;;;2.70;;
64633;SDS011;51043;52.406;9.690;2022-09-09T05:54:00;12.73;;;2.83;;
64633;SDS011;51043;52.406;9.690;2022-09-09T05:56:31;11.17;;;2.73;;
64633;SDS011;51043;52.406;9.690;2022-09-09T05:58:59;13.37;;;2.77;;
64633;SDS011;51043;52.406;9.690;2022-09-09T06:01:31;11.13;;;2.47;;
64633;SDS011;51043;52.406;9.690;2022-09-09T06:04:01;16.53;;;3.30;;
64633;SDS011;51043;52.406;9.690;2022-09-09T06:06:33;8.17;;;2.50;;
64633;SDS011;51043;52.406;9.690;2022-09-09T06:09:06;12.57;;;2.90;;
64633;SDS011;51043;52.406;9.690;2022-09-09T06:11:38;8.23;;;3.00;;
64633;SDS011;51043;52.406;9.690;2022-09-09T06:14:06;8.90;;;2.70;;
64633;SDS011;51043;52.406;9.690;2022-09-09T06:16:34;5.33;;;2.60;;
64633;SDS011;51043;52.406;9.690;2022-09-09T06:19:08;10.83;;;2.80;;
64633;SDS011;51043;52.406;9.690;2022-09-09T06:21:39;10.43;;;2.73;;
64633;SDS011;51043;52.406;9.690;2022-09-09T06:24:08;6.03;;;2.87;;
64633;SDS011;51043;52.406;9.690;2022-09-09T06:26:36;9.90;;;3.03;;
64633;SDS011;51043;52.406;9.690;2022-09-09T06:29:09;8.33;;;2.93;;
64633;SDS011;51043;52.406;9.690;2022-09-09T06:31:37;20.50;;;3.20;;
64633;SDS011;51043;52.406;9.690;2022-09-09T06:34:13;23.60;;;4.07;;
64633;SDS011;51043;52.406;9.690;2022-09-09T06:36:44;19.53;;;3.50;;
64633;SDS011;51043;52.406;9.690;2022-09-09T06:39:12;16.10;;;3.23;;
64633;SDS011;51043;52.406;9.690;2022-09-09T06:41:40;11.20;;;2.97;;
64633;SDS011;51043;52.406;9.690;2022-09-09T06:44:23;8.60;;;2.90;;
64633;SDS011;51043;52.406;9.690;2022-09-09T06:46:56;11.43;;;2.70;;
64633;SDS011;51043;52.406;9.690;2022-09-09T06:49:23;6.67;;;2.63;;
64633;SDS011;51043;52.406;9.690;2022-09-09T06:51:50;9.33;;;2.77;;
64633;SDS011;51043;52.406;9.690;2022-09-09T06:54:19;7.20;;;2.40;;
64633;SDS011;51043;52.406;9.690;2022-09-09T06:56:46;8.73;;;2.40;;
64633;SDS011;51043;52.406;9.690;2022-09-09T06:59:20;7.97;;;2.23;;
64633;SDS011;51043;52.406;9.690;2022-09-09T07:01:48;6.90;;;2.43;;
64633;SDS011;51043;52.406;9.690;2022-09-09T07:04:18;8.45;;;2.38;;
64633;SDS011;51043;52.406;9.690;2022-09-09T07:06:45;6.47;;;2.23;;
64633;SDS011;51043;52.406;9.690;2022-09-09T07:09:20;7.13;;;2.33;;
64633;SDS011;51043;52.406;9.690;2022-09-09T07:11:49;4.95;;;2.05;;
64633;SDS011;51043;52.406;9.690;2022-09-09T07:14:21;6.70;;;2.50;;
64633;SDS011;51043;52.406;9.690;2022-09-09T07:16:53;7.65;;;2.83;;
64633;SDS011;51043;52.406;9.690;2022-09-09T07:19:24;3.53;;;1.80;;
64633;SDS011;51043;52.406;9.690;2022-09-09T07:21:52;5.20;;;1.95;;
64633;SDS011;51043;52.406;9.690;2022-09-09T07:24:21;3.75;;;1.65;;
64633;SDS011;51043;52.406;9.690;2022-09-09T07:26:48;6.78;;;1.83;;
64633;SDS011;51043;52.406;9.690;2022-09-09T07:29:15;11.63;;;1.80;;
64633;SDS011;51043;52.406;9.690;2022-09-09T07:31:45;6.68;;;1.90;;
64633;SDS011;51043;52.406;9.690;2022-09-09T07:34:16;3.95;;;1.70;;
64633;SDS011;51043;52.406;9.690;2022-09-09T07:36:43;7.05;;;1.92;;
64633;SDS011;51043;52.406;9.690;2022-09-09T07:39:12;7.97;;;1.70;;
64633;SDS011;51043;52.406;9.690;2022-09-09T07:41:45;4.38;;;1.60;;
64633;SDS011;51043;52.406;9.690;2022-09-09T07:44:17;3.25;;;1.40;;
64633;SDS011;51043;52.406;9.690;2022-09-09T07:46:50;4.60;;;1.40;;
64633;SDS011;51043;52.406;9.690;2022-09-09T07:49:22;4.90;;;1.63;;
64633;SDS011;51043;52.406;9.690;2022-09-09T07:51:52;4.30;;;1.60;;
64633;SDS011;51043;52.406;9.690;2022-09-09T07:54:19;5.57;;;1.88;;
64633;SDS011;51043;52.406;9.690;2022-09-09T07:56:51;4.35;;;1.27;;
64633;SDS011;51043;52.406;9.690;2022-09-09T07:59:20;2.88;;;1.45;;
64633;SDS011;51043;52.406;9.690;2022-09-09T08:01:51;3.70;;;1.40;;
64633;SDS011;51043;52.406;9.690;2022-09-09T08:04:25;5.80;;;1.60;;
64633;SDS011;51043;52.406;9.690;2022-09-09T08:06:58;3.72;;;1.63;;
64633;SDS011;51043;52.406;9.690;2022-09-09T08:09:29;7.97;;;1.52;;
64633;SDS011;51043;52.406;9.690;2022-09-09T08:12:10;3.72;;;1.42;;
64633;SDS011;51043;52.406;9.690;2022-09-09T08:14:39;5.30;;;1.50;;
64633;SDS011;51043;52.406;9.690;2022-09-09T08:17:06;3.65;;;1.42;;
64633;SDS011;51043;52.406;9.690;2022-09-09T08:19:33;9.75;;;1.80;;
64633;SDS011;51043;52.406;9.690;2022-09-09T08:22:06;6.95;;;1.80;;
64633;SDS011;51043;52.406;9.690;2022-09-09T08:24:36;5.20;;;1.60;;
64633;SDS011;51043;52.406;9.690;2022-09-09T08:27:07;3.75;;;1.30;;
64633;SDS011;51043;52.406;9.690;2022-09-09T08:29:36;4.25;;;1.38;;
64633;SDS011;51043;52.406;9.690;2022-09-09T08:32:04;6.55;;;1.95;;
64633;SDS011;51043;52.406;9.690;2022-09-09T08:34:32;3.40;;;1.60;;
64633;SDS011;51043;52.406;9.690;2022-09-09T08:37:04;7.82;;;1.70;;
64633;SDS011;51043;52.406;9.690;2022-09-09T08:39:44;3.63;;;1.50;;
64633;SDS011;51043;52.406;9.690;2022-09-09T08:52:15;4.45;;;1.55;;
64633;SDS011;51043;52.406;9.690;2022-09-09T08:54:48;4.82;;;1.70;;
64633;SDS011;51043;52.406;9.690;2022-09-09T08:57:23;5.05;;;1.60;;
64633;SDS011;51043;52.406;9.690;2022-09-09T08:59:54;8.15;;;1.70;;
64633;SDS011;51043;52.406;9.690;2022-09-09T09:05:33;3.40;;;1.42;;
64633;SDS011;51043;52.406;9.690;2022-09-09T09:08:12;3.92;;;1.73;;
64633;SDS011;51043;52.406;9.690;2022-09-09T09:10:50;4.38;;;1.73;;
64633;SDS011;51043;52.406;9.690;2022-09-09T09:16:10;4.25;;;1.60;;
64633;SDS011;51043;52.406;9.690;2022-09-09T09:18:49;3.72;;;1.50;;
64633;SDS011;51043;52.406;9.690;2022-09-09T09:27:13;6.80;;;1.77;;
64633;SDS011;51043;52.406;9.690;2022-09-09T09:30:00;4.75;;;1.70;;
64633;SDS011;51043;52.406;9.690;2022-09-09T09:32:56;5.28;;;2.00;;
64633;SDS011;51043;52.406;9.690;2022-09-09T09:35:27;3.15;;;1.48;;
64633;SDS011;51043;52.406;9.690;2022-09-09T09:37:54;5.20;;;1.90;;
64633;SDS011;51043;52.406;9.690;2022-09-09T09:40:49;5.55;;;1.92;;
64633;SDS011;51043;52.406;9.690;2022-09-09T09:43:19;6.22;;;1.80;;
64633;SDS011;51043;52.406;9.690;2022-09-09T09:45:50;4.43;;;1.70;;
64633;SDS011;51043;52.406;9.690;2022-09-09T09:48:27;4.13;;;1.45;;
64633;SDS011;51043;52.406;9.690;2022-09-09T09:50:59;4.90;;;1.75;;
64633;SDS011;51043;52.406;9.690;2022-09-09T09:53:37;5.10;;;1.92;;
64633;SDS011;51043;52.406;9.690;2022-09-09T09:56:08;6.78;;;1.75;;
64633;SDS011;51043;52.406;9.690;2022-09-09T10:03:52;7.88;;;1.83;;
64633;SDS011;51043;52.406;9.690;2022-09-09T10:06:30;5.85;;;1.83;;
64633;SDS011;51043;52.406;9.690;2022-09-09T10:08:59;5.72;;;1.80;;
64633;SDS011;51043;52.406;9.690;2022-09-09T10:11:46;3.80;;;1.50;;
64633;SDS011;51043;52.406;9.690;2022-09-09T10:14:40;9.00;;;1.90;;
64633;SDS011;51043;52.406;9.690;2022-09-09T10:22:28;5.00;;;1.75;;
64633;SDS011;51043;52.406;9.690;2022-09-09T10:31:05;5.63;;;1.85;;
64633;SDS011;51043;52.406;9.690;2022-09-09T10:39:01;6.32;;;2.00;;
64633;SDS011;51043;52.406;9.690;2022-09-09T10:47:46;5.45;;;2.03;;
64633;SDS011;51043;52.406;9.690;2022-09-09T10:53:33;5.65;;;2.13;;
64633;SDS011;51043;52.406;9.690;2022-09-09T10:56:07;5.13;;;2.10;;
64633;SDS011;51043;52.406;9.690;2022-09-09T10:58:59;5.95;;;1.88;;
64633;SDS011;51043;52.406;9.690;2022-09-09T11:01:40;8.88;;;1.85;;
64633;SDS011;51043;52.406;9.690;2022-09-09T11:06:48;9.52;;;2.25;;
64633;SDS011;51043;52.406;9.690;2022-09-09T11:09:19;5.35;;;2.10;;
64633;SDS011;51043;52.406;9.690;2022-09-09T11:11:52;4.53;;;1.85;;
64633;SDS011;51043;52.406;9.690;2022-09-09T11:14:29;7.32;;;2.03;;
64633;SDS011;51043;52.406;9.690;2022-09-09T11:17:07;7.00;;;2.08;;
64633;SDS011;51043;52.406;9.690;2022-09-09T11:20:06;5.60;;;1.65;;
64633;SDS011;51043;52.406;9.690;2022-09-09T11:23:11;10.85;;;2.47;;
64633;SDS011;51043;52.406;9.690;2022-09-09T11:25:36;12.60;;;2.58;;
64633;SDS011;51043;52.406;9.690;2022-09-09T11:28:22;6.68;;;2.08;;
64633;SDS011;51043;52.406;9.690;2022-09-09T11:31:30;8.30;;;2.25;;
64633;SDS011;51043;52.406;9.690;2022-09-09T11:42:27;5.93;;;2.03;;
64633;SDS011;51043;52.406;9.690;2022-09-09T11:44:54;7.15;;;2.38;;
64633;SDS011;51043;52.406;9.690;2022-09-09T11:47:26;8.02;;;1.88;;
64633;SDS011;51043;52.406;9.690;2022-09-09T11:52:42;5.78;;;1.67;;
64633;SDS011;51043;52.406;9.690;2022-09-09T11:57:59;5.55;;;1.50;;
64633;SDS011;51043;52.406;9.690;2022-09-09T12:09:08;3.47;;;1.33;;
64633;SDS011;51043;52.406;9.690;2022-09-09T12:11:47;4.07;;;1.70;;
64633;SDS011;51043;52.406;9.690;2022-09-09T12:14:22;3.42;;;1.30;;
64633;SDS011;51043;52.406;9.690;2022-09-09T12:17:17;3.33;;;1.30;;
64633;SDS011;51043;52.406;9.690;2022-09-09T12:25:48;3.60;;;1.60;;
64633;SDS011;51043;52.406;9.690;2022-09-09T12:34:11;5.93;;;1.17;;
64633;SDS011;51043;52.406;9.690;2022-09-09T12:36:43;4.35;;;1.30;;
64633;SDS011;51043;52.406;9.690;2022-09-09T12:39:27;8.25;;;1.80;;
64633;SDS011;51043;52.406;9.690;2022-09-09T12:41:59;2.10;;;1.20;;
64633;SDS011;51043;52.406;9.690;2022-09-09T12:44:26;11.50;;;1.30;;
64633;SDS011;51043;52.406;9.690;2022-09-09T12:47:00;2.92;;;1.20;;
64633;SDS011;51043;52.406;9.690;2022-09-09T12:49:33;3.15;;;1.30;;
64633;SDS011;51043;52.406;9.690;2022-09-09T12:52:12;4.90;;;1.48;;
64633;SDS011;51043;52.406;9.690;2022-09-09T12:55:03;1.92;;;1.20;;
64633;SDS011;51043;52.406;9.690;2022-09-09T12:57:35;3.38;;;1.50;;
64633;SDS011;51043;52.406;9.690;2022-09-09T13:00:15;3.17;;;1.67;;
64633;SDS011;51043;52.406;9.690;2022-09-09T13:03:27;3.65;;;1.48;;
64633;SDS011;51043;52.406;9.690;2022-09-09T13:05:44;8.98;;;1.60;;
64633;SDS011;51043;52.406;9.690;2022-09-09T13:08:13;8.05;;;1.85;;
64633;SDS011;51043;52.406;9.690;2022-09-09T13:10:51;3.67;;;1.48;;
64633;SDS011;51043;52.406;9.690;2022-09-09T13:13:26;2.97;;;1.40;;
64633;SDS011;51043;52.406;9.690;2022-09-09T13:15:57;4.97;;;1.58;;
64633;SDS011;51043;52.406;9.690;2022-09-09T13:18:30;5.75;;;2.00;;
64633;SDS011;51043;52.406;9.690;2022-09-09T13:21:02;5.50;;;1.73;;
64633;SDS011;51043;52.406;9.690;2022-09-09T13:23:30;8.57;;;1.50;;
64633;SDS011;51043;52.406;9.690;2022-09-09T13:25:59;5.03;;;1.80;;
64633;SDS011;51043;52.406;9.690;2022-09-09T13:28:29;3.10;;;1.23;;
64633;SDS011;51043;52.406;9.690;2022-09-09T13:30:58;4.45;;;1.60;;
64633;SDS011;51043;52.406;9.690;2022-09-09T13:33:31;3.78;;;1.40;;
64633;SDS011;51043;52.406;9.690;2022-09-09T13:36:00;5.13;;;1.50;;
64633;SDS011;51043;52.406;9.690;2022-09-09T13:38:33;3.40;;;1.30;;
64633;SDS011;51043;52.406;9.690;2022-09-09T13:41:05;4.45;;;1.70;;
64633;SDS011;51043;52.406;9.690;2022-09-09T13:43:38;2.80;;;1.48;;
64633;SDS011;51043;52.406;9.690;2022-09-09T13:46:30;10.98;;;2.05;;
64633;SDS011;51043;52.406;9.690;2022-09-09T13:49:16;5.45;;;1.52;;
64633;SDS011;51043;52.406;9.690;2022-09-09T13:51:49;4.68;;;1.65;;
64633;SDS011;51043;52.406;9.690;2022-09-09T13:54:19;4.82;;;1.45;;
64633;SDS011;51043;52.406;9.690;2022-09-09T13:56:46;5.05;;;1.45;;
64633;SDS011;51043;52.406;9.690;2022-09-09T13:59:17;4.88;;;1.90;;
64633;SDS011;51043;52.406;9.690;2022-09-09T14:01:51;3.10;;;1.40;;
64633;SDS011;51043;52.406;9.690;2022-09-09T14:04:18;5.55;;;1.27;;
64633;SDS011;51043;52.406;9.690;2022-09-09T14:06:49;8.02;;;1.75;;
64633;SDS011;51043;52.406;9.690;2022-09-09T14:09:17;2.35;;;1.30;;
64633;SDS011;51043;52.406;9.690;2022-09-09T14:11:44;3.67;;;1.50;;
64633;SDS011;51043;52.406;9.690;2022-09-09T14:14:12;4.90;;;1.85;;
64633;SDS011;51043;52.406;9.690;2022-09-09T14:16:39;4.32;;;1.58;;
64633;SDS011;51043;52.406;9.690;2022-09-09T14:19:07;4.47;;;1.75;;
64633;SDS011;51043;52.406;9.690;2022-09-09T14:21:35;4.88;;;1.95;;
64633;SDS011;51043;52.406;9.690;2022-09-09T14:24:03;4.60;;;1.63;;
64633;SDS011;51043;52.406;9.690;2022-09-09T14:26:30;5.35;;;1.60;;
64633;SDS011;51043;52.406;9.690;2022-09-09T14:28:57;12.57;;;1.70;;
64633;SDS011;51043;52.406;9.690;2022-09-09T14:31:24;4.47;;;1.90;;
64633;SDS011;51043;52.406;9.690;2022-09-09T14:33:51;5.00;;;1.90;;
64633;SDS011;51043;52.406;9.690;2022-09-09T14:36:18;3.58;;;1.60;;
64633;SDS011;51043;52.406;9.690;2022-09-09T14:38:45;2.78;;;1.42;;
64633;SDS011;51043;52.406;9.690;2022-09-09T14:41:14;3.17;;;1.50;;
64633;SDS011;51043;52.406;9.690;2022-09-09T14:43:45;7.30;;;1.98;;
64633;SDS011;51043;52.406;9.690;2022-09-09T14:46:14;3.30;;;1.58;;
64633;SDS011;51043;52.406;9.690;2022-09-09T14:48:42;4.13;;;1.88;;
64633;SDS011;51043;52.406;9.690;2022-09-09T14:51:16;5.57;;;2.13;;
64633;SDS011;51043;52.406;9.690;2022-09-09T14:53:46;4.43;;;1.80;;
64633;SDS011;51043;52.406;9.690;2022-09-09T14:56:20;5.20;;;1.88;;
64633;SDS011;51043;52.406;9.690;2022-09-09T14:58:49;5.78;;;1.90;;
64633;SDS011;51043;52.406;9.690;2022-09-09T15:01:17;4.53;;;1.95;;
64633;SDS011;51043;52.406;9.690;2022-09-09T15:03:53;3.67;;;1.52;;
64633;SDS011;51043;52.406;9.690;2022-09-09T15:06:22;6.32;;;1.73;;
64633;SDS011;51043;52.406;9.690;2022-09-09T15:08:50;4.20;;;1.63;;
64633;SDS011;51043;52.406;9.690;2022-09-09T15:11:19;5.00;;;1.40;;
64633;SDS011;51043;52.406;9.690;2022-09-09T15:13:46;4.20;;;1.67;;
64633;SDS011;51043;52.406;9.690;2022-09-09T15:16:14;5.45;;;1.55;;
64633;SDS011;51043;52.406;9.690;2022-09-09T15:18:45;8.63;;;1.80;;
64633;SDS011;51043;52.406;9.690;2022-09-09T15:21:13;3.80;;;1.60;;
64633;SDS011;51043;52.406;9.690;2022-09-09T15:23:41;3.42;;;1.52;;
64633;SDS011;51043;52.406;9.690;2022-09-09T15:26:09;5.07;;;1.30;;
64633;SDS011;51043;52.406;9.690;2022-09-09T15:28:37;5.38;;;1.50;;
64633;SDS011;51043;52.406;9.690;2022-09-09T15:31:11;7.07;;;1.77;;
64633;SDS011;51043;52.406;9.690;2022-09-09T15:33:47;3.85;;;1.60;;
64633;SDS011;51043;52.406;9.690;2022-09-09T15:36:37;6.00;;;2.28;;
64633;SDS011;51043;52.406;9.690;2022-09-09T15:39:06;6.88;;;2.22;;
64633;SDS011;51043;52.406;9.690;2022-09-09T15:41:34;5.22;;;2.08;;
64633;SDS011;51043;52.406;9.690;2022-09-09T15:44:01;7.88;;;2.30;;
64633;SDS011;51043;52.406;9.690;2022-09-09T15:46:32;6.35;;;1.70;;
64633;SDS011;51043;52.406;9.690;2022-09-09T15:49:03;5.57;;;1.92;;
64633;SDS011;51043;52.406;9.690;2022-09-09T15:51:39;5.70;;;1.73;;
64633;SDS011;51043;52.406;9.690;2022-09-09T15:54:10;3.67;;;1.70;;
64633;SDS011;51043;52.406;9.690;2022-09-09T15:56:38;11.23;;;1.75;;
64633;SDS011;51043;52.406;9.690;2022-09-09T15:59:06;3.05;;;1.60;;
64633;SDS011;51043;52.406;9.690;2022-09-09T16:01:35;3.97;;;1.55;;
64633;SDS011;51043;52.406;9.690;2022-09-09T16:04:02;3.13;;;1.45;;
64633;SDS011;51043;52.406;9.690;2022-09-09T16:06:29;4.75;;;1.80;;
64633;SDS011;51043;52.406;9.690;2022-09-09T16:08:58;5.43;;;1.95;;
64633;SDS011;51043;52.406;9.690;2022-09-09T16:11:29;8.05;;;2.97;;
64633;SDS011;51043;52.406;9.690;2022-09-09T16:13:58;4.40;;;1.88;;
64633;SDS011;51043;52.406;9.690;2022-09-09T16:16:27;3.50;;;1.73;;
64633;SDS011;51043;52.406;9.690;2022-09-09T16:18:56;6.20;;;2.05;;
64633;SDS011;51043;52.406;9.690;2022-09-09T16:21:26;5.97;;;1.80;;
64633;SDS011;51043;52.406;9.690;2022-09-09T16:23:58;6.25;;;2.03;;
64633;SDS011;51043;52.406;9.690;2022-09-09T16:26:26;5.85;;;1.75;;
64633;SDS011;51043;52.406;9.690;2022-09-09T16:28:54;4.82;;;1.40;;
64633;SDS011;51043;52.406;9.690;2022-09-09T16:31:22;8.52;;;1.80;;
64633;SDS011;51043;52.406;9.690;2022-09-09T16:33:50;3.55;;;1.55;;
64633;SDS011;51043;52.406;9.690;2022-09-09T16:36:19;5.97;;;1.67;;
64633;SDS011;51043;52.406;9.690;2022-09-09T16:38:47;5.63;;;1.80;;
64633;SDS011;51043;52.406;9.690;2022-09-09T16:41:14;6.80;;;2.00;;
64633;SDS011;51043;52.406;9.690;2022-09-09T16:43:41;6.57;;;1.90;;
64633;SDS011;51043;52.406;9.690;2022-09-09T16:48:43;4.88;;;1.70;;
64633;SDS011;51043;52.406;9.690;2022-09-09T16:51:15;4.75;;;1.83;;
64633;SDS011;51043;52.406;9.690;2022-09-09T16:53:44;7.93;;;2.22;;
64633;SDS011;51043;52.406;9.690;2022-09-09T16:56:12;5.50;;;2.30;;
64633;SDS011;51043;52.406;9.690;2022-09-09T16:58:41;7.95;;;2.40;;
64633;SDS011;51043;52.406;9.690;2022-09-09T17:01:12;4.32;;;1.85;;
64633;SDS011;51043;52.406;9.690;2022-09-09T17:03:40;4.32;;;2.13;;
64633;SDS011;51043;52.406;9.690;2022-09-09T17:06:11;4.70;;;1.85;;
64633;SDS011;51043;52.406;9.690;2022-09-09T17:08:39;4.97;;;1.75;;
64633;SDS011;51043;52.406;9.690;2022-09-09T17:11:11;8.27;;;2.00;;
64633;SDS011;51043;52.406;9.690;2022-09-09T17:13:41;4.55;;;2.00;;
64633;SDS011;51043;52.406;9.690;2022-09-09T17:16:09;5.47;;;2.00;;
64633;SDS011;51043;52.406;9.690;2022-09-09T17:18:37;7.78;;;2.53;;
64633;SDS011;51043;52.406;9.690;2022-09-09T17:21:04;9.82;;;3.92;;
64633;SDS011;51043;52.406;9.690;2022-09-09T17:23:33;5.55;;;3.67;;
64633;SDS011;51043;52.406;9.690;2022-09-09T17:26:09;15.10;;;4.57;;
64633;SDS011;51043;52.406;9.690;2022-09-09T17:28:38;7.72;;;2.95;;
64633;SDS011;51043;52.406;9.690;2022-09-09T17:31:07;11.85;;;3.33;;